Time;durP1;ratioP1;P1;durP2;ratioP2;P2;SDS_P1;SDS_P2;PMS_P1;PMS_P2;Temp;Humidity;BMP_temperature;BMP_pressure;BME280_temperature;BME280_humidity;BME280_pressure;Samples;Min_cycle;Max_cycle;Signal;HPM_P1;HPM_P2
2023/08/20 04:02:03;;;;;;;4.27;3.87;;;18.30;99.90;;;;;;6132106;23;20867;-68
2023/08/20 04:04:31;;;;;;;3.27;3.03;;;18.30;99.90;;;;;;6153238;23;20493;-68
2023/08/20 04:06:58;;;;;;;10.73;3.30;;;18.30;99.90;;;;;;6153671;23;20798;-70
2023/08/20 04:09:25;;;;;;;4.13;3.80;;;18.30;99.90;;;;;;6153583;23;20420;-67
2023/08/20 04:11:51;;;;;;;3.80;3.20;;;18.30;99.90;;;;;;6152874;23;20448;-67
2023/08/20 04:14:18;;;;;;;4.20;3.30;;;18.30;99.90;;;;;;6153121;23;20921;-67
2023/08/20 04:16:45;;;;;;;4.00;3.70;;;18.30;99.90;;;;;;6154291;23;20421;-67
2023/08/20 04:19:13;;;;;;;3.93;3.60;;;18.20;99.90;;;;;;6153386;23;20518;-66
2023/08/20 04:24:08;;;;;;;6.00;5.50;;;18.30;99.90;;;;;;6151183;23;20493;-70
2023/08/20 04:26:35;;;;;;;5.57;4.20;;;18.30;99.90;;;;;;6154191;23;20420;-71
2023/08/20 04:29:02;;;;;;;5.53;4.67;;;18.30;99.90;;;;;;6154210;23;20414;-70
2023/08/20 04:31:28;;;;;;;7.60;3.97;;;18.20;99.90;;;;;;6154872;23;20420;-70
2023/08/20 04:33:55;;;;;;;6.07;4.03;;;18.20;99.90;;;;;;6124187;23;20419;-71
2023/08/20 04:36:23;;;;;;;8.17;4.13;;;18.30;99.90;;;;;;6125182;23;20428;-71
2023/08/20 04:38:50;;;;;;;5.87;4.33;;;18.30;99.90;;;;;;6124509;23;20449;-71
2023/08/20 04:41:17;;;;;;;4.77;3.27;;;18.30;99.90;;;;;;6124628;23;20450;-71
2023/08/20 04:43:43;;;;;;;6.63;3.50;;;18.30;99.90;;;;;;6124578;23;20450;-71
2023/08/20 04:46:10;;;;;;;6.10;4.20;;;18.30;99.90;;;;;;6123311;23;20468;-71
2023/08/20 04:48:37;;;;;;;4.67;4.00;;;18.30;99.90;;;;;;6123841;23;20420;-71
2023/08/20 04:51:04;;;;;;;4.87;4.30;;;18.40;99.90;;;;;;6124505;23;20420;-71
2023/08/20 04:53:32;;;;;;;4.70;4.17;;;18.50;99.90;;;;;;6125076;23;20442;-71
2023/08/20 04:55:59;;;;;;;4.57;4.10;;;18.50;99.90;;;;;;6124795;23;20421;-71
2023/08/20 04:58:26;;;;;;;5.10;4.17;;;18.50;99.90;;;;;;6123591;23;20532;-71
2023/08/20 05:00:53;;;;;;;4.53;4.20;;;18.50;99.90;;;;;;6122942;23;20426;-71
2023/08/20 05:03:19;;;;;;;7.67;5.83;;;18.50;99.90;;;;;;6121327;23;20446;-71
2023/08/20 05:05:49;;;;;;;6.33;4.40;;;18.60;99.90;;;;;;6124262;23;20426;-71
2023/08/20 05:08:16;;;;;;;5.20;4.33;;;18.70;99.90;;;;;;6124664;23;20441;-71
2023/08/20 05:14:06;;;;;;;7.00;5.73;;;18.80;99.90;;;;;;6132287;23;20398;-71
2023/08/20 05:16:33;;;;;;;8.10;4.90;;;18.90;99.90;;;;;;6124125;23;20432;-71
2023/08/20 05:18:59;;;;;;;14.27;5.00;;;18.90;99.90;;;;;;6123338;23;20968;-71
2023/08/20 05:21:26;;;;;;;7.13;5.53;;;18.90;99.90;;;;;;6124913;23;20485;-70
2023/08/20 05:23:53;;;;;;;4.53;4.10;;;18.90;99.90;;;;;;6124526;23;20447;-70
2023/08/20 05:26:19;;;;;;;8.50;5.37;;;18.90;99.90;;;;;;6130648;23;20423;-70
2023/08/20 05:28:46;;;;;;;14.23;5.83;;;18.90;99.90;;;;;;6131905;23;20423;-70
2023/08/20 05:31:14;;;;;;;7.90;4.70;;;18.90;99.90;;;;;;6124940;23;20733;-70
2023/08/20 05:33:40;;;;;;;10.03;6.93;;;18.90;99.90;;;;;;6132195;23;20442;-70
2023/08/20 05:36:07;;;;;;;6.30;5.67;;;18.90;99.90;;;;;;6126703;23;20420;-71
2023/08/20 05:38:34;;;;;;;7.93;6.03;;;19.00;99.90;;;;;;6131854;23;20458;-71
2023/08/20 05:41:01;;;;;;;9.77;4.90;;;19.00;99.90;;;;;;6129775;23;20430;-70
2023/08/20 05:43:27;;;;;;;10.27;5.73;;;19.00;99.90;;;;;;6126082;23;20445;-70
2023/08/20 05:45:54;;;;;;;8.73;5.27;;;19.00;99.90;;;;;;6125524;23;20442;-70
2023/08/20 05:48:22;;;;;;;6.57;5.97;;;19.00;99.90;;;;;;6125823;23;20928;-71
2023/08/20 05:50:49;;;;;;;6.33;5.33;;;19.00;99.90;;;;;;6125812;23;20449;-71
2023/08/20 05:53:15;;;;;;;8.33;5.57;;;19.00;99.90;;;;;;6124881;23;20446;-68
2023/08/20 05:55:42;;;;;;;5.93;5.33;;;19.00;99.90;;;;;;6124939;23;20430;-68
2023/08/20 05:58:09;;;;;;;11.47;5.70;;;19.00;99.90;;;;;;6123537;23;20453;-70
2023/08/20 06:00:35;;;;;;;5.97;5.13;;;19.10;99.90;;;;;;6123170;23;20423;-68
2023/08/20 06:03:02;;;;;;;3.90;3.70;;;19.10;99.90;;;;;;6123922;23;20440;-68
2023/08/20 06:05:30;;;;;;;6.00;5.40;;;19.10;99.90;;;;;;6123829;23;20450;-68
2023/08/20 06:07:57;;;;;;;6.93;5.53;;;19.10;99.90;;;;;;6123629;23;20426;-71
2023/08/20 06:10:24;;;;;;;7.37;5.30;;;19.20;99.90;;;;;;6126280;23;20426;-68
2023/08/20 06:12:50;;;;;;;8.77;5.40;;;19.20;99.90;;;;;;6125361;23;20439;-69
2023/08/20 06:15:17;;;;;;;13.13;6.73;;;19.30;99.90;;;;;;6125072;23;20428;-68
2023/08/20 06:17:44;;;;;;;10.13;8.13;;;19.70;99.90;;;;;;6124898;23;20428;-69
2023/08/20 06:20:11;;;;;;;5.80;5.30;;;20.50;99.90;;;;;;6124956;23;20451;-70
2023/08/20 06:22:40;;;;;;;5.20;3.63;;;21.50;99.90;;;;;;6125233;23;20487;-69
2023/08/20 06:25:07;;;;;;;3.00;2.80;;;22.30;99.90;;;;;;6125980;23;20422;-69
2023/08/20 06:27:34;;;;;;;3.20;2.90;;;23.00;99.90;;;;;;6125289;23;20911;-69
2023/08/20 06:30:00;;;;;;;3.00;2.57;;;23.70;99.90;;;;;;6125126;23;20743;-69
2023/08/20 06:32:27;;;;;;;3.03;2.70;;;24.40;99.90;;;;;;6126019;23;20527;-69
2023/08/20 06:34:54;;;;;;;2.87;2.77;;;25.00;99.90;;;;;;6126056;23;20899;-71
2023/08/20 06:37:20;;;;;;;3.27;3.00;;;25.30;99.90;;;;;;6125823;23;20426;-70
2023/08/20 06:39:49;;;;;;;3.23;3.00;;;25.40;99.90;;;;;;6124322;23;20443;-69
2023/08/20 06:42:15;;;;;;;3.30;3.07;;;25.20;99.90;;;;;;6124933;23;20440;-67
2023/08/20 06:44:42;;;;;;;2.30;2.20;;;25.30;99.90;;;;;;6125975;23;20423;-70
2023/08/20 06:47:09;;;;;;;3.40;2.73;;;25.80;99.90;;;;;;6125955;23;20420;-69
2023/08/20 06:49:35;;;;;;;2.23;2.13;;;26.30;99.90;;;;;;6125085;23;20422;-68
2023/08/20 06:52:02;;;;;;;2.57;2.47;;;26.80;99.90;;;;;;6125795;23;20447;-69
2023/08/20 06:54:29;;;;;;;2.67;2.57;;;26.60;99.90;;;;;;6125775;23;20423;-69
2023/08/20 06:56:57;;;;;;;2.90;2.70;;;26.90;99.90;;;;;;6124792;23;20935;-68
2023/08/20 06:59:23;;;;;;;2.30;2.17;;;27.50;99.90;;;;;;6124155;23;20963;-68
2023/08/20 07:01:50;;;;;;;2.00;2.00;;;27.60;99.90;;;;;;6123994;23;20439;-68
2023/08/20 07:04:17;;;;;;;2.27;2.17;;;27.80;99.90;;;;;;6124199;23;20419;-69
2023/08/20 07:06:43;;;;;;;2.17;2.17;;;28.20;99.90;;;;;;6134268;23;20423;-69
2023/08/20 07:09:10;;;;;;;2.60;2.50;;;28.40;99.90;;;;;;6125053;23;20420;-68
2023/08/20 07:11:37;;;;;;;1.27;1.27;;;28.40;99.90;;;;;;6124652;23;20928;-70
2023/08/20 07:14:05;;;;;;;1.60;1.50;;;28.10;99.90;;;;;;6124036;23;20981;-68
2023/08/20 07:16:32;;;;;;;1.43;1.43;;;27.30;99.90;;;;;;6124749;23;20423;-70
2023/08/20 07:18:59;;;;;;;1.77;1.77;;;26.50;99.90;;;;;;6123622;23;20451;-69
2023/08/20 07:21:25;;;;;;;2.00;1.90;;;25.70;99.90;;;;;;6123365;23;20423;-69
2023/08/20 07:23:52;;;;;;;2.23;2.00;;;25.60;99.90;;;;;;6124681;23;20455;-69
2023/08/20 07:26:19;;;;;;;1.93;1.93;;;26.00;99.90;;;;;;6125273;23;20427;-68
2023/08/20 07:28:58;;;;;;;2.10;2.00;;;26.60;99.90;;;;;;6125011;23;20430;-69
2023/08/20 07:31:26;;;;;;;1.97;1.80;;;27.30;99.90;;;;;;6125846;23;20404;-69
2023/08/20 07:33:54;;;;;;;1.60;1.50;;;27.80;99.90;;;;;;6125621;23;20502;-69
2023/08/20 07:36:22;;;;;;;1.37;1.37;;;28.10;99.90;;;;;;6125763;23;20423;-68
2023/08/20 07:38:49;;;;;;;1.10;1.10;;;28.60;99.90;;;;;;6124635;23;20451;-72
2023/08/20 07:41:16;;;;;;;1.43;1.43;;;28.50;99.90;;;;;;6125390;23;20423;-69
2023/08/20 07:43:43;;;;;;;1.50;1.50;;;28.70;99.90;;;;;;6121491;23;20526;-69
2023/08/20 07:46:10;;;;;;;1.30;1.30;;;28.60;99.90;;;;;;6124350;23;20447;-69
2023/08/20 07:48:39;;;;;;;1.00;1.00;;;28.00;99.90;;;;;;6125665;23;20432;-72
2023/08/20 07:51:06;;;;;;;1.13;1.13;;;27.20;99.90;;;;;;6126313;23;20426;-71
2023/08/20 07:53:34;;;;;;;0.87;0.87;;;26.60;99.90;;;;;;6126472;23;20440;-71
2023/08/20 07:56:01;;;;;;;1.50;1.40;;;25.90;99.90;;;;;;6127057;23;20419;-67
2023/08/20 07:58:28;;;;;;;0.97;0.97;;;25.40;99.90;;;;;;6125646;23;20427;-71
2023/08/20 08:00:54;;;;;;;0.80;0.73;;;25.00;99.90;;;;;;6124971;23;20454;-70
2023/08/20 08:03:21;;;;;;;0.60;0.60;;;24.40;99.90;;;;;;6124708;23;20458;-71
2023/08/20 08:05:49;;;;;;;1.40;1.40;;;24.20;99.90;;;;;;6126545;23;20443;-71
2023/08/20 08:08:17;;;;;;;0.97;0.97;;;24.00;99.90;;;;;;6127106;23;20422;-69
2023/08/20 08:10:45;;;;;;;2.93;1.27;;;23.90;99.90;;;;;;6124697;23;20429;-72
2023/08/20 08:13:11;;;;;;;1.53;1.37;;;23.80;99.90;;;;;;6124243;23;20443;-72
2023/08/20 08:15:38;;;;;;;1.83;1.73;;;23.70;99.90;;;;;;6125724;23;20421;-72
2023/08/20 08:18:05;;;;;;;1.80;0.80;;;23.60;99.90;;;;;;6125712;23;20421;-69
2023/08/20 08:20:32;;;;;;;0.80;0.80;;;23.60;99.90;;;;;;6125853;23;20461;-72
2023/08/20 08:23:00;;;;;;;9.27;0.90;;;23.50;99.90;;;;;;6125106;23;20454;-71
2023/08/20 08:25:27;;;;;;;1.63;0.97;;;23.60;99.90;;;;;;6125498;23;20759;-70
2023/08/20 08:27:54;;;;;;;1.83;1.30;;;23.70;99.90;;;;;;6125146;23;20420;-72
2023/08/20 08:30:21;;;;;;;1.70;1.57;;;23.60;99.90;;;;;;6123974;23;20423;-71
2023/08/20 08:32:48;;;;;;;1.00;1.00;;;23.70;99.90;;;;;;6123408;23;20460;-69
2023/08/20 08:35:15;;;;;;;1.37;1.30;;;23.70;99.90;;;;;;6124269;23;20499;-69
2023/08/20 08:37:41;;;;;;;0.90;0.90;;;23.70;99.90;;;;;;6123947;23;20420;-69
2023/08/20 08:40:10;;;;;;;1.90;1.47;;;23.60;99.90;;;;;;6122884;23;20779;-69
2023/08/20 08:42:37;;;;;;;0.90;0.90;;;23.60;99.90;;;;;;6123237;23;20444;-69
2023/08/20 08:45:05;;;;;;;0.87;0.87;;;23.60;99.90;;;;;;6122283;23;20427;-69
2023/08/20 08:47:32;;;;;;;2.27;1.40;;;23.60;99.90;;;;;;6123370;23;20423;-69
2023/08/20 08:49:59;;;;;;;1.90;1.80;;;23.60;99.90;;;;;;6123710;23;20421;-69
2023/08/20 08:52:26;;;;;;;1.40;1.20;;;23.70;99.90;;;;;;6123696;23;20444;-69
2023/08/20 08:54:54;;;;;;;1.30;1.30;;;23.70;99.90;;;;;;6123964;23;20780;-70
2023/08/20 08:57:22;;;;;;;1.40;1.40;;;23.70;99.90;;;;;;6123425;23;20421;-70
2023/08/20 08:59:48;;;;;;;1.53;1.53;;;23.70;99.90;;;;;;6124310;23;20734;-69
2023/08/20 09:02:18;;;;;;;1.10;1.10;;;23.80;99.90;;;;;;6123604;23;20445;-69
2023/08/20 09:04:45;;;;;;;2.40;1.30;;;23.80;99.90;;;;;;6124714;23;20415;-70
2023/08/20 09:07:13;;;;;;;2.30;2.20;;;23.80;99.90;;;;;;6123294;23;20975;-69
2023/08/20 09:09:43;;;;;;;4.83;0.97;;;23.80;99.90;;;;;;6123918;23;20479;-69
2023/08/20 09:12:14;;;;;;;2.40;1.10;;;23.80;99.90;;;;;;6124192;23;20440;-70
2023/08/20 09:14:46;;;;;;;2.87;1.50;;;23.90;99.90;;;;;;6123863;23;20460;-70
2023/08/20 09:17:13;;;;;;;0.70;0.70;;;23.90;99.90;;;;;;6133635;23;20512;-70
2023/08/20 09:19:39;;;;;;;2.93;1.43;;;23.90;99.90;;;;;;6122180;23;20445;-70
2023/08/20 09:22:06;;;;;;;3.63;1.80;;;24.00;99.90;;;;;;6120179;23;20452;-70
2023/08/20 09:24:35;;;;;;;1.20;1.20;;;24.00;99.90;;;;;;6120589;23;20408;-70
2023/08/20 09:27:04;;;;;;;1.90;1.30;;;23.90;99.90;;;;;;6120753;23;20470;-70
2023/08/20 09:29:33;;;;;;;0.93;0.90;;;23.90;99.90;;;;;;6121188;23;20741;-70
2023/08/20 09:32:03;;;;;;;1.33;1.23;;;23.90;99.90;;;;;;6123194;23;20452;-70
2023/08/20 09:34:38;;;;;;;1.70;1.70;;;24.00;99.90;;;;;;6122033;23;20428;-70
2023/08/20 09:37:08;;;;;;;2.93;1.67;;;24.00;99.90;;;;;;6123888;23;20479;-70
2023/08/20 09:39:35;;;;;;;1.50;1.43;;;24.00;99.90;;;;;;6123349;23;20469;-69
2023/08/20 09:42:02;;;;;;;3.07;2.40;;;24.00;99.90;;;;;;6123561;23;20451;-69
2023/08/20 09:44:34;;;;;;;1.70;1.60;;;24.00;99.90;;;;;;6125308;23;20425;-70
2023/08/20 09:47:04;;;;;;;1.87;1.60;;;24.10;99.90;;;;;;6124238;23;20411;-69
2023/08/20 09:49:37;;;;;;;2.47;1.60;;;24.10;99.90;;;;;;6123827;23;20400;-69
2023/08/20 09:52:06;;;;;;;1.20;1.20;;;24.10;99.90;;;;;;6126069;23;20449;-70
2023/08/20 09:54:41;;;;;;;1.40;1.40;;;24.10;99.90;;;;;;6126634;23;20421;-71
2023/08/20 09:57:13;;;;;;;1.07;1.07;;;24.30;99.90;;;;;;6126495;23;20405;-71
2023/08/20 09:59:41;;;;;;;2.10;1.67;;;24.50;99.90;;;;;;6126192;23;20433;-70
2023/08/20 10:02:12;;;;;;;1.50;1.50;;;24.50;99.90;;;;;;6123542;23;20442;-70
2023/08/20 10:04:40;;;;;;;1.63;1.53;;;24.60;99.90;;;;;;6125482;23;20501;-70
2023/08/20 10:07:06;;;;;;;2.83;1.90;;;24.70;99.90;;;;;;6126114;23;20457;-71
2023/08/20 10:09:33;;;;;;;2.33;1.20;;;24.70;99.90;;;;;;6123641;23;20423;-70
2023/08/20 10:12:02;;;;;;;1.00;1.00;;;24.70;99.90;;;;;;6125236;23;20452;-70
2023/08/20 10:14:29;;;;;;;1.17;1.17;;;24.80;99.90;;;;;;6124466;23;20424;-70
2023/08/20 10:16:55;;;;;;;1.10;1.10;;;24.80;99.90;;;;;;6123914;23;20421;-70
2023/08/20 10:19:24;;;;;;;7.43;2.37;;;24.80;99.90;;;;;;6128247;23;20447;-70
2023/08/20 10:21:53;;;;;;;1.40;1.30;;;24.80;99.90;;;;;;6130140;23;20911;-70
2023/08/20 10:24:20;;;;;;;1.80;1.40;;;24.80;99.90;;;;;;6129427;23;20408;-70
2023/08/20 10:26:48;;;;;;;1.97;1.43;;;24.80;99.90;;;;;;6128992;23;20453;-70
2023/08/20 10:29:37;;;;;;;1.43;1.33;;;24.70;99.90;;;;;;6146729;23;20945;-68
2023/08/20 10:32:09;;;;;;;1.80;1.80;;;24.70;99.90;;;;;;6155115;23;20416;-67
2023/08/20 10:34:39;;;;;;;3.63;2.03;;;24.60;99.90;;;;;;6155116;23;20401;-68
2023/08/20 10:37:10;;;;;;;1.03;1.03;;;24.60;99.90;;;;;;6155495;23;20786;-68
2023/08/20 10:39:37;;;;;;;2.30;1.70;;;24.60;99.90;;;;;;6153916;23;20449;-68
2023/08/20 10:42:11;;;;;;;1.80;1.80;;;24.60;99.90;;;;;;6154439;23;20428;-68
2023/08/20 10:45:03;;;;;;;2.00;1.90;;;24.60;99.90;;;;;;6154811;23;20404;-68
2023/08/20 10:47:43;;;;;;;1.20;1.10;;;24.60;99.90;;;;;;6135940;23;20450;-68
2023/08/20 10:50:13;;;;;;;1.50;1.50;;;24.60;99.90;;;;;;6154413;23;20858;-68
2023/08/20 10:52:41;;;;;;;1.70;1.60;;;24.70;99.90;;;;;;6154403;23;20417;-68
2023/08/20 10:55:09;;;;;;;2.50;1.67;;;24.60;99.90;;;;;;6153792;23;20488;-69
2023/08/20 10:57:36;;;;;;;1.63;1.53;;;24.60;99.90;;;;;;6154759;23;20444;-68
2023/08/20 11:00:11;;;;;;;1.40;1.40;;;24.60;99.90;;;;;;6153817;23;20457;-69
2023/08/20 11:02:38;;;;;;;2.53;1.70;;;24.70;99.90;;;;;;6153679;23;20406;-70
2023/08/20 11:05:16;;;;;;;1.23;1.23;;;24.80;99.90;;;;;;6154511;23;20436;-67
2023/08/20 11:07:47;;;;;;;2.03;1.83;;;24.80;99.90;;;;;;6154477;23;20416;-68
2023/08/20 11:10:15;;;;;;;1.70;1.60;;;24.80;99.90;;;;;;6154726;23;20406;-67
2023/08/20 11:12:42;;;;;;;1.77;1.73;;;24.80;99.90;;;;;;6154866;23;20442;-68
2023/08/20 11:15:10;;;;;;;1.63;1.53;;;24.90;99.90;;;;;;6155078;23;20478;-68
2023/08/20 11:17:41;;;;;;;1.60;1.50;;;25.00;99.90;;;;;;6155428;23;20751;-67
2023/08/20 11:20:09;;;;;;;8.17;2.00;;;25.10;99.90;;;;;;6153857;23;20445;-68
2023/08/20 11:22:36;;;;;;;3.07;1.70;;;25.00;99.90;;;;;;6153989;23;20423;-68
2023/08/20 11:25:05;;;;;;;2.13;2.03;;;25.00;99.90;;;;;;6154643;23;20912;-67
2023/08/20 11:27:32;;;;;;;1.40;1.33;;;24.90;99.90;;;;;;6154691;23;20431;-67
2023/08/20 11:29:59;;;;;;;1.43;1.43;;;25.00;99.90;;;;;;6155347;23;20743;-68
2023/08/20 11:32:25;;;;;;;1.80;1.60;;;25.00;99.90;;;;;;6155161;23;20444;-67
2023/08/20 11:34:53;;;;;;;1.70;1.70;;;25.00;99.90;;;;;;6155277;23;20428;-70
2023/08/20 11:37:21;;;;;;;1.70;1.70;;;25.00;99.90;;;;;;6154703;23;20419;-67
2023/08/20 11:39:48;;;;;;;4.00;1.60;;;25.10;99.90;;;;;;6154455;23;20452;-68
2023/08/20 11:42:17;;;;;;;1.53;1.53;;;25.20;99.90;;;;;;6154965;23;20783;-67
2023/08/20 11:44:45;;;;;;;1.73;1.63;;;25.30;99.90;;;;;;6153772;23;20421;-68
2023/08/20 11:47:16;;;;;;;1.70;1.60;;;25.40;99.90;;;;;;6154935;23;20424;-68
2023/08/20 11:49:42;;;;;;;1.53;1.43;;;25.50;99.90;;;;;;6153912;23;20455;-69
2023/08/20 11:52:10;;;;;;;1.73;1.63;;;25.70;99.90;;;;;;6154122;23;20419;-68
2023/08/20 11:54:36;;;;;;;1.80;1.70;;;25.80;99.90;;;;;;6155020;23;20421;-67
2023/08/20 11:57:04;;;;;;;1.40;1.30;;;26.00;99.90;;;;;;6154513;23;20418;-68
2023/08/20 11:59:33;;;;;;;2.03;1.93;;;26.00;99.90;;;;;;6153117;23;20476;-67
2023/08/20 12:02:01;;;;;;;1.40;1.30;;;26.00;99.90;;;;;;6151323;23;20418;-67
2023/08/20 12:04:29;;;;;;;2.30;1.87;;;26.00;99.90;;;;;;6151743;23;20923;-67
2023/08/20 12:07:05;;;;;;;1.60;1.60;;;25.90;99.90;;;;;;6153064;23;20422;-67
2023/08/20 12:09:32;;;;;;;1.50;1.50;;;25.90;99.90;;;;;;6153766;23;20440;-68
2023/08/20 12:11:59;;;;;;;1.70;1.70;;;25.80;99.90;;;;;;6153729;23;20733;-68
2023/08/20 12:14:26;;;;;;;1.63;1.63;;;25.80;99.90;;;;;;6152824;23;20426;-68
2023/08/20 12:16:54;;;;;;;1.83;1.77;;;25.90;99.90;;;;;;6149470;23;20427;-71
2023/08/20 12:19:21;;;;;;;1.30;1.30;;;26.00;99.90;;;;;;6153159;23;20445;-68
2023/08/20 12:21:48;;;;;;;1.60;1.60;;;26.10;99.90;;;;;;6153433;23;20453;-68
2023/08/20 12:24:15;;;;;;;1.53;1.53;;;26.20;99.90;;;;;;6154271;23;20425;-68
2023/08/20 12:26:42;;;;;;;4.87;1.70;;;26.30;99.90;;;;;;6154006;23;20732;-68
2023/08/20 12:29:09;;;;;;;1.83;1.77;;;26.20;99.90;;;;;;6153383;23;20783;-68
2023/08/20 12:31:36;;;;;;;1.47;1.37;;;26.10;99.90;;;;;;6153637;23;20440;-68
2023/08/20 12:34:04;;;;;;;1.60;1.60;;;26.00;99.90;;;;;;6153105;23;20960;-67
2023/08/20 12:36:31;;;;;;;1.80;1.70;;;25.90;99.90;;;;;;6153875;23;20798;-68
2023/08/20 12:38:57;;;;;;;1.53;1.43;;;25.90;99.90;;;;;;6153740;23;20444;-68
2023/08/20 12:41:24;;;;;;;1.80;1.50;;;26.00;99.90;;;;;;6152453;23;20771;-69
2023/08/20 12:43:51;;;;;;;2.30;2.00;;;26.00;99.90;;;;;;6153587;23;20915;-69
2023/08/20 12:46:18;;;;;;;2.20;1.60;;;26.10;99.90;;;;;;6151029;23;20422;-68
2023/08/20 12:48:45;;;;;;;1.30;1.30;;;26.40;99.90;;;;;;6152320;23;20469;-68
2023/08/20 12:51:13;;;;;;;2.83;1.93;;;26.60;99.90;;;;;;6154237;23;20481;-68
2023/08/20 12:53:40;;;;;;;2.00;2.00;;;26.70;99.90;;;;;;6153810;23;20450;-67
2023/08/20 12:56:07;;;;;;;1.43;1.43;;;26.70;99.90;;;;;;6153985;23;20756;-67
2023/08/20 12:58:33;;;;;;;1.70;1.70;;;26.60;99.90;;;;;;6152774;23;20442;-67
2023/08/20 13:01:00;;;;;;;1.30;1.20;;;26.70;99.90;;;;;;6152146;23;20450;-67
2023/08/20 13:03:28;;;;;;;1.50;1.50;;;26.70;99.90;;;;;;6151191;23;20907;-68
2023/08/20 13:05:56;;;;;;;1.90;1.80;;;26.90;99.90;;;;;;6152822;23;20485;-69
2023/08/20 13:08:25;;;;;;;1.83;1.73;;;26.80;99.90;;;;;;6153248;23;20439;-67
2023/08/20 13:10:55;;;;;;;1.70;1.70;;;26.90;99.90;;;;;;6153495;23;20430;-67
2023/08/20 13:13:23;;;;;;;2.23;1.63;;;26.80;99.90;;;;;;6152759;23;20403;-67
2023/08/20 13:15:51;;;;;;;2.10;1.90;;;26.70;99.90;;;;;;6153298;23;20744;-67
2023/08/20 13:18:19;;;;;;;1.30;1.30;;;26.70;99.90;;;;;;6149812;23;20509;-68
2023/08/20 13:20:46;;;;;;;2.70;1.90;;;26.70;99.90;;;;;;6152159;23;20529;-68
2023/08/20 13:23:12;;;;;;;1.40;1.30;;;26.70;99.90;;;;;;6152956;23;20423;-69
2023/08/20 13:25:40;;;;;;;1.43;1.40;;;26.70;99.90;;;;;;6153756;23;20418;-69
2023/08/20 13:28:07;;;;;;;1.83;1.70;;;26.60;99.90;;;;;;6152792;23;20447;-68
2023/08/20 13:30:34;;;;;;;1.50;1.50;;;26.50;99.90;;;;;;6153134;23;20657;-68
2023/08/20 13:33:01;;;;;;;1.23;1.23;;;26.60;99.90;;;;;;6152685;23;20419;-69
2023/08/20 13:35:28;;;;;;;1.90;1.50;;;26.60;99.90;;;;;;6153115;23;20445;-69
2023/08/20 13:37:55;;;;;;;1.53;1.53;;;26.60;99.90;;;;;;6153426;23;20439;-68
2023/08/20 13:40:21;;;;;;;1.00;1.00;;;26.60;99.90;;;;;;6152733;23;20994;-69
2023/08/20 13:42:49;;;;;;;1.80;1.80;;;26.70;99.90;;;;;;6153616;23;20418;-68
2023/08/20 13:45:16;;;;;;;1.30;1.30;;;26.70;99.90;;;;;;6153594;23;20422;-68
2023/08/20 13:47:44;;;;;;;1.23;1.23;;;26.70;99.90;;;;;;6151785;23;20437;-68
2023/08/20 13:50:11;;;;;;;1.30;1.17;;;26.70;99.90;;;;;;6152834;23;20454;-68
2023/08/20 13:52:37;;;;;;;1.60;1.60;;;26.70;99.90;;;;;;6153410;23;20799;-67
2023/08/20 13:55:05;;;;;;;2.57;2.33;;;26.80;99.90;;;;;;6153623;23;20441;-69
2023/08/20 13:57:31;;;;;;;2.43;1.90;;;27.00;99.90;;;;;;6153508;23;20426;-67
2023/08/20 14:00:00;;;;;;;1.83;1.73;;;27.10;99.90;;;;;;6152479;23;20419;-68
2023/08/20 14:02:26;;;;;;;1.30;1.30;;;27.20;99.90;;;;;;6151843;23;20446;-69
2023/08/20 14:04:53;;;;;;;1.50;1.50;;;27.20;99.90;;;;;;6153337;23;20422;-69
2023/08/20 14:07:20;;;;;;;1.80;1.63;;;27.30;99.90;;;;;;6151917;23;20413;-68
2023/08/20 14:09:46;;;;;;;1.70;1.70;;;27.30;99.90;;;;;;6153089;23;20449;-71
2023/08/20 14:12:13;;;;;;;1.50;1.40;;;27.40;99.90;;;;;;6153212;23;20422;-69
2023/08/20 14:14:40;;;;;;;1.80;1.60;;;27.40;99.90;;;;;;6163008;23;20876;-65
2023/08/20 14:17:08;;;;;;;1.60;1.50;;;27.40;99.90;;;;;;6150612;23;20455;-69
2023/08/20 14:19:35;;;;;;;2.03;1.80;;;27.30;99.90;;;;;;6152551;23;20439;-67
2023/08/20 14:22:02;;;;;;;1.10;1.10;;;27.30;99.90;;;;;;6152501;23;20456;-68
2023/08/20 14:24:29;;;;;;;1.60;1.60;;;27.20;99.90;;;;;;6152770;23;20419;-67
2023/08/20 14:26:55;;;;;;;1.63;1.60;;;27.20;99.90;;;;;;6152064;23;20476;-69
2023/08/20 14:29:22;;;;;;;1.30;1.30;;;27.20;99.90;;;;;;6151629;23;20446;-68
2023/08/20 14:31:49;;;;;;;1.50;1.50;;;27.20;99.90;;;;;;6152383;23;20422;-68
2023/08/20 14:34:17;;;;;;;1.70;1.60;;;27.20;99.90;;;;;;6154273;23;20803;-68
2023/08/20 14:36:44;;;;;;;1.77;1.67;;;27.20;99.90;;;;;;6154328;23;20887;-68
2023/08/20 14:39:10;;;;;;;1.37;1.33;;;27.20;99.90;;;;;;6154783;23;20439;-68
2023/08/20 14:41:37;;;;;;;1.83;1.77;;;27.10;99.90;;;;;;6154401;23;20803;-69
2023/08/20 14:44:04;;;;;;;1.23;1.23;;;27.00;99.90;;;;;;6154675;23;20418;-68
2023/08/20 14:46:31;;;;;;;1.93;1.70;;;26.90;99.90;;;;;;6153545;23;20418;-67
2023/08/20 14:48:58;;;;;;;1.60;1.50;;;26.90;99.90;;;;;;6154554;23;20445;-67
2023/08/20 14:51:26;;;;;;;1.53;1.53;;;26.90;99.90;;;;;;6154590;23;20422;-68
2023/08/20 14:53:52;;;;;;;1.30;1.30;;;26.90;99.90;;;;;;6154956;23;20430;-68
2023/08/20 14:56:19;;;;;;;3.70;1.90;;;27.00;99.90;;;;;;6154592;23;20426;-67
2023/08/20 14:58:46;;;;;;;2.00;1.90;;;27.10;99.90;;;;;;6153764;23;20450;-69
2023/08/20 15:01:12;;;;;;;1.77;1.77;;;27.20;99.90;;;;;;6154543;23;20452;-68
2023/08/20 15:03:39;;;;;;;1.93;1.53;;;27.10;99.90;;;;;;6153914;23;20419;-67
2023/08/20 15:06:06;;;;;;;1.70;1.60;;;27.10;99.90;;;;;;6155240;23;20422;-68
2023/08/20 15:08:34;;;;;;;2.23;1.47;;;27.10;99.90;;;;;;6154841;23;20449;-68
2023/08/20 15:11:02;;;;;;;1.77;1.77;;;27.10;99.90;;;;;;6155002;23;20766;-68
2023/08/20 15:13:30;;;;;;;1.73;1.60;;;27.00;99.90;;;;;;6154642;23;20512;-67
2023/08/20 15:15:57;;;;;;;1.60;1.60;;;27.10;99.90;;;;;;6154238;23;20808;-67
2023/08/20 15:18:23;;;;;;;1.70;1.70;;;27.00;99.90;;;;;;6155482;23;20438;-67
2023/08/20 15:20:55;;;;;;;1.50;1.50;;;27.00;99.90;;;;;;6155104;23;20419;-68
2023/08/20 15:23:22;;;;;;;2.13;2.03;;;27.00;99.90;;;;;;6154220;23;20863;-67
2023/08/20 15:25:52;;;;;;;1.50;1.50;;;27.00;99.90;;;;;;6154924;23;20419;-67
2023/08/20 15:28:18;;;;;;;2.10;1.90;;;27.00;99.90;;;;;;6153820;23;20453;-67
2023/08/20 15:30:45;;;;;;;1.50;1.50;;;27.00;99.90;;;;;;6154398;23;20421;-70
2023/08/20 15:33:13;;;;;;;1.70;1.60;;;27.00;99.90;;;;;;6154023;23;20450;-67
2023/08/20 15:35:40;;;;;;;1.33;1.33;;;27.10;99.90;;;;;;6154735;23;20514;-67
2023/08/20 15:38:07;;;;;;;1.77;1.77;;;27.10;99.90;;;;;;6154275;23;20439;-68
2023/08/20 15:40:34;;;;;;;1.40;1.40;;;27.10;99.90;;;;;;6154216;23;20473;-68
2023/08/20 15:43:02;;;;;;;1.80;1.80;;;27.20;99.90;;;;;;6153856;23;20446;-67
2023/08/20 15:45:29;;;;;;;1.67;1.67;;;27.20;99.90;;;;;;6153647;23;20931;-69
2023/08/20 15:47:56;;;;;;;2.20;1.77;;;27.20;99.90;;;;;;6153984;23;20951;-67
2023/08/20 15:50:22;;;;;;;1.80;1.80;;;27.20;99.90;;;;;;6153849;23;20442;-67
2023/08/20 15:52:49;;;;;;;1.57;1.50;;;27.20;99.90;;;;;;6154140;23;20418;-69
2023/08/20 15:55:16;;;;;;;2.20;2.10;;;27.20;99.90;;;;;;6154276;23;20745;-68
2023/08/20 15:57:43;;;;;;;2.13;1.67;;;27.20;99.90;;;;;;6153926;23;20186;-68
2023/08/20 16:00:14;;;;;;;1.60;1.50;;;27.10;99.90;;;;;;6153464;23;20428;-68
2023/08/20 16:02:42;;;;;;;2.40;1.70;;;27.10;99.90;;;;;;6154394;23;20655;-67
2023/08/20 16:05:09;;;;;;;1.37;1.37;;;27.10;99.90;;;;;;6154168;23;20892;-68
2023/08/20 16:07:35;;;;;;;1.87;1.77;;;27.20;99.90;;;;;;6153747;23;20451;-69
2023/08/20 16:10:03;;;;;;;1.73;1.73;;;27.00;99.90;;;;;;6153428;23;20441;-67
2023/08/20 16:12:30;;;;;;;1.23;1.23;;;26.90;99.90;;;;;;6153193;23;20471;-67
2023/08/20 16:14:57;;;;;;;2.10;2.00;;;26.80;99.90;;;;;;6153906;23;20429;-67
2023/08/20 16:17:25;;;;;;;1.97;1.97;;;26.80;99.90;;;;;;6154342;23;20448;-68
2023/08/20 16:19:52;;;;;;;1.83;1.83;;;26.70;99.90;;;;;;6153848;23;20449;-68
2023/08/20 16:22:18;;;;;;;2.07;1.97;;;26.70;99.90;;;;;;6152579;23;20452;-68
2023/08/20 16:24:45;;;;;;;1.80;1.70;;;26.70;99.90;;;;;;6154125;23;20421;-68
2023/08/20 16:27:12;;;;;;;2.40;2.30;;;26.70;99.90;;;;;;6152978;23;20421;-67
2023/08/20 16:29:38;;;;;;;2.30;2.20;;;26.60;99.90;;;;;;6152352;23;20447;-68
2023/08/20 16:32:05;;;;;;;3.77;3.67;;;26.60;99.90;;;;;;6152799;23;20417;-68
2023/08/20 16:34:33;;;;;;;3.00;2.90;;;26.60;99.90;;;;;;6153563;23;20638;-68
2023/08/20 16:37:00;;;;;;;2.80;2.67;;;26.60;99.90;;;;;;6153365;23;20457;-68
2023/08/20 16:39:27;;;;;;;2.40;2.30;;;26.50;99.90;;;;;;6153165;23;20525;-68
2023/08/20 16:41:53;;;;;;;2.37;2.33;;;26.40;99.90;;;;;;6152967;23;20448;-68
2023/08/20 16:44:20;;;;;;;2.37;2.17;;;26.30;99.90;;;;;;6153555;23;20420;-69
2023/08/20 16:46:47;;;;;;;5.63;2.83;;;26.20;99.90;;;;;;6154171;23;20747;-68
2023/08/20 16:49:14;;;;;;;2.13;2.13;;;26.20;99.90;;;;;;6153837;23;20625;-69
2023/08/20 16:51:42;;;;;;;2.90;2.70;;;26.20;99.90;;;;;;6153092;23;20421;-69
2023/08/20 16:54:08;;;;;;;2.80;2.70;;;26.10;99.90;;;;;;6153381;23;20426;-68